createdAt,value
2023-04-18T00:18:28.298Z,280
2023-04-18T00:38:28.317Z,282
2023-04-18T00:58:28.345Z,283
2023-04-18T01:18:28.338Z,283
2023-04-18T01:38:28.349Z,279
2023-04-18T01:58:28.347Z,275
2023-04-18T02:18:28.352Z,279
2023-04-18T02:38:28.390Z,276
2023-04-18T02:58:28.370Z,277
2023-04-18T03:18:28.370Z,279
2023-04-18T03:38:28.381Z,279
2023-04-18T03:58:28.379Z,277
2023-04-18T04:18:28.401Z,278
2023-04-18T04:38:28.415Z,281
2023-04-18T04:58:28.406Z,279
2023-04-18T05:18:28.434Z,279
2023-04-18T05:38:28.476Z,280
2023-04-18T05:58:28.462Z,280
2023-04-18T06:18:28.497Z,279
2023-04-18T06:38:28.461Z,280
2023-04-18T06:58:28.484Z,278
2023-04-18T07:18:37.061Z,275
2023-04-18T07:38:28.506Z,275
2023-04-18T07:58:28.483Z,275
2023-04-18T08:18:28.482Z,273
2023-04-18T08:38:28.568Z,273
2023-04-18T08:58:28.506Z,270
2023-04-18T09:18:28.533Z,274
2023-04-18T09:38:28.524Z,272
2023-04-18T09:58:28.544Z,268
2023-04-18T10:18:28.543Z,272
2023-04-18T10:38:28.539Z,271
2023-04-18T10:58:28.535Z,270
2023-04-18T11:18:28.526Z,267
2023-04-18T11:38:28.598Z,268
2023-04-18T11:58:28.540Z,270
2023-04-18T12:18:28.554Z,264
2023-04-18T12:38:28.553Z,265
2023-04-18T12:58:28.546Z,268
2023-04-18T13:18:28.543Z,262
2023-04-18T13:38:28.531Z,261
2023-04-18T13:58:28.520Z,252
2023-04-18T14:18:28.567Z,234
2023-04-18T14:38:28.511Z,224
2023-04-18T14:58:27.996Z,228
2023-04-18T15:18:28.516Z,225
2023-04-18T15:38:28.498Z,236
2023-04-18T15:58:28.480Z,245
2023-04-18T16:18:28.546Z,251
2023-04-18T16:38:28.472Z,254
2023-04-18T16:58:28.471Z,257
2023-04-18T17:18:28.441Z,266
2023-04-18T17:38:28.465Z,266
2023-04-18T17:58:28.455Z,268
2023-04-18T18:18:28.485Z,270
2023-04-18T18:38:28.464Z,273
2023-04-18T18:58:28.475Z,273
2023-04-18T19:18:28.475Z,272
2023-04-18T19:38:28.461Z,272
2023-04-18T19:58:28.445Z,275
2023-04-18T20:18:28.466Z,272
2023-04-18T20:38:28.524Z,272
2023-04-18T20:58:28.517Z,273
2023-04-18T21:18:28.457Z,268
2023-04-18T21:38:28.453Z,272
2023-04-18T21:58:28.476Z,272
2023-04-18T22:18:28.455Z,275
2023-04-18T22:38:28.523Z,271
2023-04-18T22:58:28.490Z,272
2023-04-18T23:18:28.511Z,271
2023-04-18T23:38:28.496Z,271
2023-04-18T23:58:28.517Z,272
